KBVY/BVY METAR and TAF weather

Enter ICAO airport designator
Station Type Date Time Source
KBVY METAR 2022/01/26 07:53 UTC NOAA

KBVY 260753Z AUTO 33006KT 10SM CLR M07/M14 A3015 RMK AO2 SLP208 T10671144


Station Type Date Time Source
KBVY Decoded METAR 2022/01/26 07:53 UTC NOAA

BEVERLY MUNICIPAL AIRPORT, MA, United States (KBVY) 42-35N 070-55W 28M
Jan 26, 2022 - 02:53 AM EST / 2022.01.26 0753 UTC
Wind: from the NNW (330 degrees) at 7 MPH (6 KT):0
Visibility: 10 mile(s):0
Sky conditions: clear
Temperature: 19.9 F (-6.7 C)
Windchill: 10 F (-12 C):1
Dew Point: 6.1 F (-14.4 C)
Relative Humidity: 54%
Pressure (altimeter): 30.15 in. Hg (1020 hPa)
ob: KBVY 260753Z AUTO 33006KT 10SM CLR M07/M14 A3015 RMK AO2 SLP208 T10671144
cycle: 8

Station Type Date Time Source
KBVY TAF UTC NOAA

Error!

Example: see airport list